Terminal Aerodrome Forecast
Issued by NWS Sterling, VA

Current Version | Previous Version | Text Only | Print | Product List | Glossary On
Versions: 1 2 3 4 5 6 7 8 9 10 11 12 13 14 15 16 17 18 19 20 21
000
FTUS41 KLWX 301721
TAFCHO
TAF
KCHO 301721Z 3018/0118 09004KT P6SM OVC025
     FM302300 13005KT P6SM -RA OVC015
     FM010200 12005KT P6SM -RA OVC008
     FM011000 15004KT 4SM -RA BR OVC003
     FM011200 14005KT 2SM -RA BR OVC003
     FM011500 18006KT 2SM BR OVC008=

USA.gov is the U.S. government's official web portal to all federal, state and local government web resources and services.